Time;durP1;ratioP1;P1;durP2;ratioP2;P2;SDS_P1;SDS_P2;PMS_P1;PMS_P2;Temp;Humidity;BMP_temperature;BMP_pressure;BME280_temperature;BME280_humidity;BME280_pressure;Samples;Min_cycle;Max_cycle;Signal;HPM_P1;HPM_P2
2023/06/21 00:02:36;;;;;;;5.10;2.80;;;;;;;20.35;58.30;99617.50;10514378;28;20054;-66
2023/06/21 00:07:41;;;;;;;4.45;2.70;;;;;;;20.42;58.52;99617.69;10511829;28;20059;-65
2023/06/21 00:12:43;;;;;;;5.50;3.00;;;;;;;20.56;58.09;99619.72;10513593;28;20076;-65
2023/06/21 00:17:45;;;;;;;4.72;2.90;;;;;;;20.43;58.11;99625.50;10512544;28;20131;-65
2023/06/21 00:22:47;;;;;;;8.65;3.13;;;;;;;20.17;58.58;99635.34;10514150;28;20135;-65
2023/06/21 00:27:50;;;;;;;4.78;2.90;;;;;;;20.19;58.63;99642.16;10514042;28;20071;-65
2023/06/21 00:32:51;;;;;;;5.45;3.00;;;;;;;20.23;58.66;99655.97;10493912;28;20044;-66
2023/06/21 00:37:55;;;;;;;4.80;2.90;;;;;;;20.26;58.80;99658.28;10514066;28;20044;-65
2023/06/21 00:42:58;;;;;;;5.07;2.83;;;;;;;20.24;58.94;99662.91;10513656;28;20032;-65
2023/06/21 00:47:59;;;;;;;5.28;2.72;;;;;;;20.19;58.83;99666.03;10486854;28;20048;-66
2023/06/21 00:53:01;;;;;;;5.13;2.80;;;;;;;20.15;58.84;99677.97;10512206;28;20387;-65
2023/06/21 00:58:03;;;;;;;5.25;2.65;;;;;;;20.06;59.01;99670.97;10513926;28;20446;-65
2023/06/21 01:03:06;;;;;;;4.25;2.35;;;;;;;20.02;58.99;99676.75;10493589;28;20123;-65
2023/06/21 01:08:27;;;;;;;5.00;2.83;;;;;;;19.84;59.50;99676.81;10493374;28;20106;-65
2023/06/21 01:14:02;;;;;;;4.93;2.90;;;;;;;19.78;60.22;99690.69;10511452;28;20530;-65
2023/06/21 01:19:06;;;;;;;5.97;2.80;;;;;;;19.76;59.67;99702.44;10512096;28;20043;-65
2023/06/21 01:24:35;;;;;;;5.05;2.85;;;;;;;19.72;60.44;99695.78;10459859;28;20446;-66
2023/06/21 01:29:39;;;;;;;5.43;2.90;;;;;;;19.42;60.04;99699.69;10492760;28;20039;-65
2023/06/21 01:34:41;;;;;;;5.43;3.17;;;;;;;19.53;59.85;99703.91;10508183;28;20166;-66
2023/06/21 01:39:43;;;;;;;4.80;2.83;;;;;;;19.60;59.74;99704.97;10510526;28;20097;-65
2023/06/21 01:44:46;;;;;;;4.68;2.97;;;;;;;19.54;59.72;99698.47;10493287;28;20047;-66
2023/06/21 01:49:49;;;;;;;5.10;2.78;;;;;;;19.59;59.70;99703.31;10477419;28;20131;-67
2023/06/21 01:54:51;;;;;;;5.72;2.72;;;;;;;19.55;59.86;99693.97;10493108;28;20135;-66
2023/06/21 01:59:53;;;;;;;5.00;2.75;;;;;;;19.51;59.95;99700.59;10512069;28;20086;-66
2023/06/21 02:04:57;;;;;;;4.68;2.88;;;;;;;19.33;59.94;99709.41;10495279;28;20849;-66
2023/06/21 02:10:01;;;;;;;4.38;2.63;;;;;;;19.25;60.08;99712.00;10515527;28;20124;-66
2023/06/21 02:15:03;;;;;;;6.47;2.80;;;;;;;19.12;60.44;99713.34;10497658;28;20052;-66
2023/06/21 02:20:12;;;;;;;5.28;2.88;;;;;;;19.11;60.21;99715.19;10498231;28;20040;-66
2023/06/21 02:25:16;;;;;;;4.65;2.80;;;;;;;18.94;60.57;99723.91;10498733;28;20040;-66
2023/06/21 02:30:19;;;;;;;4.72;2.67;;;;;;;18.81;60.91;99731.34;10489346;28;20126;-66
2023/06/21 02:35:20;;;;;;;6.05;3.22;;;;;;;18.44;61.44;99726.13;10515015;28;20090;-66
2023/06/21 02:40:22;;;;;;;4.50;3.00;;;;;;;18.21;61.97;99727.50;10498089;28;20071;-66
2023/06/21 02:45:24;;;;;;;8.05;3.00;;;;;;;18.33;61.83;99728.97;10512791;28;20127;-66
2023/06/21 02:50:29;;;;;;;4.35;2.55;;;;;;;18.45;61.49;99738.41;10516299;28;20060;-66
2023/06/21 02:55:31;;;;;;;4.50;2.70;;;;;;;18.55;61.58;99738.34;10514669;28;20044;-66
2023/06/21 03:00:33;;;;;;;8.38;2.92;;;;;;;18.44;61.25;99741.19;10464492;28;20707;-66
2023/06/21 03:05:37;;;;;;;4.78;2.90;;;;;;;18.41;61.59;99739.66;10490363;28;20044;-66
2023/06/21 03:10:39;;;;;;;5.13;3.00;;;;;;;18.51;61.33;99760.81;10506006;28;20128;-66
2023/06/21 03:15:41;;;;;;;5.90;3.25;;;;;;;18.44;61.77;99779.09;10488990;28;20649;-66
2023/06/21 03:20:43;;;;;;;4.40;2.85;;;;;;;18.46;61.52;99787.72;10480924;28;20697;-66
2023/06/21 03:25:44;;;;;;;5.47;2.90;;;;;;;18.56;61.45;99791.16;10516105;28;20559;-66
2023/06/21 03:30:46;;;;;;;4.97;2.63;;;;;;;18.55;61.47;99800.09;10483007;28;20491;-66
2023/06/21 03:35:50;;;;;;;4.50;2.80;;;;;;;18.46;61.24;99813.38;10498507;28;20523;-65
2023/06/21 03:40:52;;;;;;;4.50;2.55;;;;;;;18.26;61.62;99817.88;10496646;28;20580;-65
2023/06/21 03:45:54;;;;;;;5.82;2.70;;;;;;;18.38;61.48;99816.72;10514073;28;20044;-65
2023/06/21 03:50:56;;;;;;;4.20;2.35;;;;;;;18.39;61.43;99821.06;10496664;28;20040;-65
2023/06/21 03:56:00;;;;;;;5.15;2.63;;;;;;;18.58;61.10;99815.69;10463848;28;20075;-65
2023/06/21 04:01:03;;;;;;;6.97;2.58;;;;;;;18.70;61.03;99819.00;10481414;28;20044;-65
2023/06/21 04:06:05;;;;;;;5.80;2.92;;;;;;;18.68;61.40;99805.06;10490417;28;20045;-65
2023/06/21 04:11:07;;;;;;;7.70;2.70;;;;;;;18.77;60.79;99798.88;10496529;28;20826;-65
2023/06/21 04:16:09;;;;;;;4.65;2.70;;;;;;;19.10;60.74;99802.78;10515861;28;20500;-66
2023/06/21 04:21:11;;;;;;;3.92;2.60;;;;;;;20.71;58.06;99818.25;10496596;28;20048;-66
2023/06/21 04:26:12;;;;;;;4.60;2.55;;;;;;;20.84;57.07;99813.34;10494864;28;20093;-66
2023/06/21 04:31:16;;;;;;;6.38;2.40;;;;;;;22.14;55.17;99811.78;10483208;28;20054;-65
2023/06/21 04:36:18;;;;;;;4.43;2.47;;;;;;;23.47;52.11;99826.84;10512309;28;20056;-66
2023/06/21 04:41:21;;;;;;;4.15;2.25;;;;;;;24.10;50.87;99837.25;10495882;28;20051;-65
2023/06/21 04:46:27;;;;;;;3.67;2.38;;;;;;;25.52;48.57;99850.22;10512375;28;20269;-66
2023/06/21 04:51:30;;;;;;;3.92;2.50;;;;;;;27.43;45.56;99839.88;10507772;28;20136;-66
2023/06/21 04:56:32;;;;;;;4.00;2.45;;;;;;;28.29;43.35;99847.09;10469607;22;20111;-88
2023/06/21 05:01:34;;;;;;;3.55;2.30;;;;;;;26.54;45.14;99849.72;10402512;28;20465;-88
2023/06/21 05:06:36;;;;;;;4.07;2.40;;;;;;;25.44;46.54;99858.34;10419483;28;20091;-88
2023/06/21 05:11:40;;;;;;;3.47;2.30;;;;;;;25.55;45.82;99841.78;10401660;28;20049;-88
2023/06/21 05:16:44;;;;;;;4.47;2.42;;;;;;;26.22;45.12;99844.09;10409185;28;20045;-88
2023/06/21 05:21:47;;;;;;;4.13;2.20;;;;;;;25.17;46.44;99859.00;10430134;28;20756;-88
2023/06/21 05:26:51;;;;;;;4.07;2.60;;;;;;;27.13;43.51;99857.28;10424887;28;20055;-88
2023/06/21 05:31:56;;;;;;;3.83;2.00;;;;;;;26.09;44.50;99854.72;10427318;28;20064;-88
2023/06/21 05:36:58;;;;;;;3.85;2.38;;;;;;;25.00;46.44;99862.91;10426033;28;20040;-88
2023/06/21 05:42:00;;;;;;;4.45;2.22;;;;;;;24.71;47.03;99870.91;10395048;28;20045;-88
2023/06/21 05:47:02;;;;;;;3.28;2.10;;;;;;;24.47;47.49;99871.97;10399678;28;20140;-88
2023/06/21 05:52:08;;;;;;;4.88;2.33;;;;;;;24.24;48.08;99880.06;10412487;28;20110;-87
2023/06/21 05:57:10;;;;;;;4.78;2.63;;;;;;;24.35;47.83;99888.66;10396479;28;20056;-88
2023/06/21 06:02:13;;;;;;;4.78;2.33;;;;;;;24.62;47.44;99880.03;10416464;28;20048;-88
2023/06/21 06:07:15;;;;;;;5.20;2.30;;;;;;;24.78;47.09;99875.38;10401728;28;20038;-88
2023/06/21 06:12:18;;;;;;;4.10;2.60;;;;;;;24.22;47.86;99883.91;10399745;28;20084;-88
2023/06/21 06:17:20;;;;;;;4.22;2.35;;;;;;;23.95;48.74;99905.78;10398805;28;20091;-88
2023/06/21 06:22:22;;;;;;;4.35;2.47;;;;;;;23.91;48.83;99908.00;10399067;28;20124;-88
2023/06/21 06:27:24;;;;;;;4.53;2.65;;;;;;;23.78;49.08;99902.41;10417211;28;20084;-88
2023/06/21 06:32:27;;;;;;;3.42;2.20;;;;;;;23.69;49.45;99902.63;10418677;28;20078;-89
2023/06/21 06:37:29;;;;;;;4.07;2.22;;;;;;;23.62;49.66;99912.34;10394687;28;20033;-88
2023/06/21 06:42:33;;;;;;;4.70;2.47;;;;;;;23.45;49.97;99911.63;10393136;28;20048;-88
2023/06/21 06:47:38;;;;;;;5.78;2.40;;;;;;;23.72;50.02;99928.97;10410748;28;20121;-88
2023/06/21 06:52:40;;;;;;;4.15;2.50;;;;;;;24.17;49.35;99927.22;10415053;28;20513;-88
2023/06/21 06:57:42;;;;;;;4.95;2.60;;;;;;;24.69;48.36;99926.44;10398437;28;20103;-88
2023/06/21 07:03:03;;;;;;;4.22;2.67;;;;;;;25.26;47.73;99921.31;10408928;28;20308;-88
2023/06/21 07:08:05;;;;;;;4.40;2.38;;;;;;;25.46;47.18;99919.75;10412731;28;20049;-87
2023/06/21 07:13:07;;;;;;;7.70;2.80;;;;;;;25.96;46.54;99922.41;10417995;28;20045;-88
2023/06/21 07:18:10;;;;;;;4.60;2.55;;;;;;;26.76;45.49;99922.09;10380931;28;20426;-88
2023/06/21 07:23:13;;;;;;;3.83;2.25;;;;;;;28.59;42.93;99907.50;10408571;28;20037;-86
2023/06/21 07:28:21;;;;;;;3.30;2.13;;;;;;;30.23;38.21;99913.13;10415428;28;20056;-85
2023/06/21 07:33:23;;;;;;;6.03;2.47;;;;;;;31.20;38.26;99907.88;10400799;28;20041;-86
2023/06/21 07:38:27;;;;;;;4.03;2.55;;;;;;;31.00;37.90;99919.97;10379587;28;20132;-84
2023/06/21 07:43:30;;;;;;;4.15;2.38;;;;;;;31.15;37.58;99913.13;10394642;28;20461;-85
2023/06/21 07:48:33;;;;;;;3.83;2.25;;;;;;;30.20;38.33;99913.56;10393272;28;20472;-85
2023/06/21 07:53:36;;;;;;;3.58;2.35;;;;;;;30.02;38.64;99921.56;10388628;28;20045;-86
2023/06/21 07:58:38;;;;;;;3.60;2.33;;;;;;;30.85;37.46;99903.25;10379426;28;20041;-86
2023/06/21 08:03:41;;;;;;;3.55;2.00;;;;;;;31.46;36.15;99912.13;10398813;28;20099;-86
2023/06/21 08:08:55;;;;;;;3.40;2.00;;;;;;;31.71;34.44;99893.97;10398389;28;20047;-86
2023/06/21 08:14:03;;;;;;;4.80;1.90;;;;;;;30.71;36.71;99899.88;10415505;28;20029;-86
2023/06/21 08:19:06;;;;;;;3.60;2.03;;;;;;;31.54;35.87;99895.63;10420418;28;20049;-85
2023/06/21 08:24:08;;;;;;;3.47;2.20;;;;;;;32.72;34.30;99889.25;10444565;28;20052;-86
2023/06/21 08:29:12;;;;;;;4.13;2.40;;;;;;;33.20;33.73;99883.56;10405475;28;20123;-86
2023/06/21 08:34:15;;;;;;;3.78;2.05;;;;;;;32.38;33.83;99883.78;10415391;28;20049;-87
2023/06/21 08:39:19;;;;;;;3.70;2.00;;;;;;;31.15;34.28;99896.91;10423519;28;20053;-85
2023/06/21 08:44:22;;;;;;;3.33;1.80;;;;;;;30.41;35.27;99893.47;10443410;28;20122;-85
2023/06/21 08:49:29;;;;;;;3.42;1.70;;;;;;;30.45;35.29;99889.28;10426464;28;20081;-85
2023/06/21 08:54:38;;;;;;;3.03;1.85;;;;;;;30.05;35.05;99894.16;10431498;28;20053;-85
2023/06/21 08:59:56;;;;;;;3.60;2.20;;;;;;;30.08;35.08;99896.44;10398206;28;20053;-85
2023/06/21 09:05:04;;;;;;;3.30;1.88;;;;;;;31.19;33.64;99895.41;10356963;28;20045;-85
2023/06/21 09:10:08;;;;;;;3.53;2.05;;;;;;;31.51;33.61;99896.09;10380530;28;20145;-86
2023/06/21 09:15:12;;;;;;;3.05;1.67;;;;;;;31.95;33.27;99908.38;10358484;28;20100;-86
2023/06/21 09:20:18;;;;;;;3.17;1.90;;;;;;;31.82;32.13;99925.63;10377778;28;20057;-86
2023/06/21 09:25:20;;;;;;;3.28;2.00;;;;;;;31.61;33.23;99928.84;10388068;28;20037;-87
2023/06/21 09:30:24;;;;;;;3.78;2.15;;;;;;;32.04;31.45;99918.69;10375877;28;20104;-87
2023/06/21 09:35:29;;;;;;;3.88;2.00;;;;;;;32.28;32.31;99924.97;10377219;28;20037;-85
2023/06/21 09:40:41;;;;;;;5.07;2.15;;;;;;;32.36;30.03;99921.09;10378186;28;20128;-86
2023/06/21 09:46:03;;;;;;;3.33;1.90;;;;;;;32.01;31.03;99921.84;10386963;28;20517;-86
2023/06/21 09:51:10;;;;;;;3.78;1.98;;;;;;;32.00;31.02;99931.03;10372875;28;20050;-86
2023/06/21 09:56:18;;;;;;;4.05;2.13;;;;;;;31.63;31.20;99932.13;10376746;28;20050;-86
2023/06/21 10:01:20;;;;;;;3.38;2.00;;;;;;;32.27;31.63;99944.16;10377715;28;20049;-86
2023/06/21 10:06:28;;;;;;;3.65;2.10;;;;;;;32.02;30.93;99952.44;10375547;28;20953;-86
2023/06/21 10:11:35;;;;;;;3.15;2.05;;;;;;;32.01;30.93;99950.78;10365889;28;20053;-85
2023/06/21 10:16:38;;;;;;;3.87;2.23;;;;;;;32.25;30.78;99956.03;10368690;28;20461;-85
2023/06/21 10:21:41;;;;;;;4.18;1.90;;;;;;;32.62;29.97;99942.34;10377919;28;20065;-85
2023/06/21 10:26:44;;;;;;;3.70;2.03;;;;;;;33.32;29.34;99943.16;10387800;28;20048;-86
2023/06/21 10:31:48;;;;;;;3.42;1.95;;;;;;;33.20;28.88;99945.91;10381020;28;20080;-86
2023/06/21 10:37:02;;;;;;;4.68;2.22;;;;;;;32.39;29.30;99956.66;10383485;28;20104;-84
2023/06/21 10:42:06;;;;;;;4.22;2.20;;;;;;;32.33;28.69;99949.44;10370058;28;20103;-85
2023/06/21 10:47:08;;;;;;;3.58;1.88;;;;;;;31.98;29.35;99956.63;10387391;28;20041;-84
2023/06/21 10:52:10;;;;;;;3.60;2.00;;;;;;;31.78;29.24;99951.47;10378191;28;20045;-85
2023/06/21 10:57:14;;;;;;;4.32;2.08;;;;;;;31.38;29.84;99942.19;10385180;28;20564;-85
2023/06/21 11:02:16;;;;;;;4.00;2.17;;;;;;;31.17;29.99;99948.06;10404601;28;20053;-84
2023/06/21 11:07:23;;;;;;;5.20;2.20;;;;;;;31.20;29.47;99947.59;10404576;28;20052;-85
2023/06/21 11:12:26;;;;;;;4.20;2.20;;;;;;;31.21;29.56;99947.34;10402693;28;20067;-85
2023/06/21 11:17:28;;;;;;;3.55;2.05;;;;;;;31.55;29.87;99937.84;10402864;28;20057;-85
2023/06/21 11:22:33;;;;;;;3.97;2.15;;;;;;;31.57;28.74;99935.75;10415694;28;20502;-86
2023/06/21 11:27:34;;;;;;;3.60;1.98;;;;;;;31.53;29.54;99937.25;10399781;28;20076;-86
2023/06/21 11:32:39;;;;;;;4.43;2.10;;;;;;;31.57;29.98;99924.94;10401194;28;20052;-85
2023/06/21 11:37:44;;;;;;;4.13;2.33;;;;;;;31.96;29.22;99916.28;10418281;28;20045;-86
2023/06/21 11:42:48;;;;;;;3.55;2.05;;;;;;;31.89;29.88;99920.94;10410444;28;20309;-85
2023/06/21 11:48:03;;;;;;;7.80;2.42;;;;;;;31.40;29.54;99929.25;10424077;28;20029;-86
2023/06/21 11:53:20;;;;;;;3.53;2.00;;;;;;;31.44;28.72;99936.69;10427245;28;20100;-86
2023/06/21 11:58:24;;;;;;;4.90;2.50;;;;;;;31.49;30.13;99933.34;10406863;28;20064;-85
2023/06/21 12:03:27;;;;;;;4.72;2.17;;;;;;;32.19;29.30;99931.75;10406249;28;20061;-85
2023/06/21 12:08:37;;;;;;;4.40;2.20;;;;;;;32.53;28.45;99932.94;10389727;28;20045;-85
2023/06/21 12:13:39;;;;;;;4.28;2.10;;;;;;;32.79;29.07;99932.47;10388382;28;20048;-85
2023/06/21 12:18:41;;;;;;;4.03;2.20;;;;;;;32.81;28.41;99942.03;10421348;28;20124;-86
2023/06/21 12:23:43;;;;;;;3.58;1.92;;;;;;;32.37;28.65;99934.41;10399972;28;20544;-85
2023/06/21 12:28:46;;;;;;;3.83;2.13;;;;;;;32.54;28.50;99940.81;10423734;28;20395;-85
2023/06/21 12:33:56;;;;;;;3.70;1.98;;;;;;;32.76;28.06;99935.63;10418613;28;20041;-85
2023/06/21 12:39:07;;;;;;;3.88;2.28;;;;;;;32.49;27.85;99931.75;10403132;28;20057;-85
2023/06/21 12:44:24;;;;;;;4.15;1.95;;;;;;;32.22;27.66;99931.31;10412308;28;20041;-85
2023/06/21 12:49:26;;;;;;;3.60;1.80;;;;;;;32.41;28.59;99934.78;10447001;28;20548;-85
2023/06/21 12:54:28;;;;;;;3.67;1.98;;;;;;;32.45;27.82;99935.94;10415551;28;20053;-86
2023/06/21 12:59:30;;;;;;;3.92;2.13;;;;;;;32.33;28.45;99935.91;10419434;28;20056;-85
2023/06/21 13:04:32;;;;;;;2.97;2.00;;;;;;;32.40;28.25;99933.09;10427226;28;20050;-86
2023/06/21 13:09:34;;;;;;;3.53;1.80;;;;;;;32.74;28.20;99941.28;10410732;28;20140;-85
2023/06/21 13:14:37;;;;;;;4.20;2.20;;;;;;;32.88;27.59;99936.50;10413584;28;20426;-84
2023/06/21 13:19:41;;;;;;;3.75;2.35;;;;;;;32.76;26.86;99933.75;10388872;28;20045;-83
2023/06/21 13:24:45;;;;;;;4.55;2.22;;;;;;;32.84;27.60;99930.69;10380327;28;20464;-84
2023/06/21 13:29:47;;;;;;;3.10;1.77;;;;;;;32.66;27.94;99928.09;10403674;28;20317;-83
2023/06/21 13:34:52;;;;;;;3.05;2.00;;;;;;;32.78;27.36;99930.84;10380746;28;20463;-84
2023/06/21 13:39:54;;;;;;;3.13;1.90;;;;;;;33.17;27.14;99921.97;10415690;28;20512;-83
2023/06/21 13:44:57;;;;;;;2.85;1.80;;;;;;;33.38;26.58;99925.94;10411737;28;20048;-84
2023/06/21 13:50:03;;;;;;;4.20;1.92;;;;;;;33.33;26.32;99918.53;10415694;28;20044;-84
2023/06/21 13:55:14;;;;;;;3.80;2.30;;;;;;;33.06;26.53;99916.59;10389912;28;20045;-84
2023/06/21 14:00:20;;;;;;;3.40;1.90;;;;;;;33.10;26.49;99913.16;10374011;28;20066;-85
2023/06/21 14:05:23;;;;;;;3.33;1.88;;;;;;;32.79;27.40;99911.63;10363191;28;20045;-84
2023/06/21 14:10:25;;;;;;;3.85;2.08;;;;;;;32.60;27.81;99911.97;10385457;28;20049;-84
2023/06/21 14:15:28;;;;;;;3.38;2.00;;;;;;;31.92;28.36;99906.97;10392854;28;20108;-84
2023/06/21 14:20:32;;;;;;;3.80;2.00;;;;;;;32.06;27.39;99902.22;10378973;28;20445;-84
2023/06/21 14:25:35;;;;;;;4.25;2.10;;;;;;;32.39;27.57;99912.53;10361843;28;20046;-85
2023/06/21 14:30:38;;;;;;;5.57;2.13;;;;;;;32.64;27.31;99897.72;10389547;28;20542;-84
2023/06/21 14:35:40;;;;;;;3.30;2.00;;;;;;;32.68;27.25;99900.78;10394517;28;20045;-83
2023/06/21 14:40:42;;;;;;;3.33;1.90;;;;;;;32.41;27.82;99908.53;10376718;28;20046;-84
2023/06/21 14:45:45;;;;;;;3.70;2.00;;;;;;;32.24;28.00;99913.78;10381201;28;20046;-84
2023/06/21 14:50:48;;;;;;;3.30;1.95;;;;;;;32.41;27.97;99918.53;10361191;28;20045;-84
2023/06/21 14:55:50;;;;;;;3.38;2.10;;;;;;;32.12;27.57;99918.34;10385127;28;20581;-84
2023/06/21 15:00:53;;;;;;;3.70;2.10;;;;;;;32.08;28.05;99928.00;10374689;28;20506;-84
2023/06/21 15:05:55;;;;;;;3.10;2.00;;;;;;;32.33;27.68;99921.56;10375379;28;20052;-85
2023/06/21 15:11:07;;;;;;;3.78;2.20;;;;;;;32.39;27.73;99920.63;10360743;28;20058;-85
2023/06/21 15:16:10;;;;;;;3.40;1.90;;;;;;;32.14;28.02;99920.81;10355036;28;20042;-84
2023/06/21 15:21:14;;;;;;;4.00;2.10;;;;;;;32.51;27.58;99921.50;10363107;28;20566;-84
2023/06/21 15:26:16;;;;;;;2.88;1.80;;;;;;;32.35;27.93;99923.00;10363017;28;20475;-84
2023/06/21 15:31:21;;;;;;;4.13;2.17;;;;;;;32.09;27.98;99916.09;10377108;28;20054;-83
2023/06/21 15:36:23;;;;;;;3.17;2.00;;;;;;;31.91;28.35;99918.84;10390255;28;20053;-84
2023/06/21 15:41:25;;;;;;;3.70;1.92;;;;;;;31.85;28.53;99911.66;10375565;28;20067;-84
2023/06/21 15:46:28;;;;;;;3.67;2.20;;;;;;;31.91;28.33;99921.53;10377142;28;20466;-85
2023/06/21 15:51:31;;;;;;;3.88;2.03;;;;;;;31.95;28.62;99911.91;10363275;28;20414;-84
2023/06/21 15:56:52;;;;;;;3.63;1.95;;;;;;;31.41;28.94;99907.41;10374885;28;20049;-85
2023/06/21 16:01:54;;;;;;;4.55;2.00;;;;;;;31.58;29.01;99906.84;10338124;28;20045;-84
2023/06/21 16:07:01;;;;;;;3.38;1.80;;;;;;;31.64;27.86;99895.91;10369578;28;20097;-85
2023/06/21 16:12:03;;;;;;;2.63;1.70;;;;;;;31.67;28.25;99906.28;10333628;28;20044;-85
2023/06/21 16:17:05;;;;;;;2.80;1.60;;;;;;;31.29;28.71;99906.53;10337147;28;20106;-85
2023/06/21 16:22:07;;;;;;;3.90;1.80;;;;;;;30.82;29.27;99906.41;10349422;28;21162;-85
2023/06/21 16:27:09;;;;;;;2.95;1.67;;;;;;;31.08;29.10;99901.59;10334825;28;20046;-87
2023/06/21 16:32:11;;;;;;;3.03;1.77;;;;;;;31.11;28.90;99905.72;10353996;28;20053;-84
2023/06/21 16:37:13;;;;;;;3.30;1.65;;;;;;;31.17;28.96;99892.13;10340949;28;20112;-85
2023/06/21 16:42:15;;;;;;;3.13;1.73;;;;;;;31.29;28.75;99900.31;10354087;28;20050;-85
2023/06/21 16:47:17;;;;;;;4.18;2.10;;;;;;;30.97;28.97;99917.66;10337835;28;20054;-86
2023/06/21 16:52:19;;;;;;;5.07;2.10;;;;;;;30.56;30.80;99918.28;10340124;28;20085;-85
2023/06/21 16:57:20;;;;;;;3.92;2.15;;;;;;;30.39;32.16;99925.25;10343370;28;20072;-85
2023/06/21 17:02:22;;;;;;;3.00;2.00;;;;;;;30.25;32.60;99929.94;10402723;28;20052;-85
2023/06/21 17:07:24;;;;;;;3.30;1.88;;;;;;;29.95;33.03;99931.56;10408270;28;20140;-84
2023/06/21 17:12:26;;;;;;;2.75;1.75;;;;;;;29.72;33.12;99939.34;10413707;28;20080;-84
2023/06/21 17:17:28;;;;;;;3.30;1.88;;;;;;;29.55;33.52;99939.00;10415542;28;20520;-84
2023/06/21 17:22:30;;;;;;;4.18;1.90;;;;;;;29.42;33.96;99935.56;10380855;28;20049;-83
2023/06/21 17:27:32;;;;;;;3.15;1.83;;;;;;;29.21;33.90;99941.19;10416872;28;20482;-83
2023/06/21 17:32:34;;;;;;;2.45;1.63;;;;;;;29.12;34.02;99942.44;10403620;28;20114;-84
2023/06/21 17:37:36;;;;;;;2.50;1.60;;;;;;;29.15;34.54;99939.31;10388213;28;20057;-83
2023/06/21 17:42:37;;;;;;;3.85;1.70;;;;;;;29.05;34.58;99935.19;10413006;28;20050;-83
2023/06/21 17:47:39;;;;;;;4.20;1.90;;;;;;;29.03;34.68;99948.03;10398187;28;20037;-83
2023/06/21 17:52:41;;;;;;;5.00;1.80;;;;;;;29.00;35.05;99950.34;10400397;28;20684;-83
2023/06/21 17:57:43;;;;;;;3.47;1.80;;;;;;;28.83;35.06;99951.75;10398085;28;20579;-83
2023/06/21 18:02:45;;;;;;;5.13;2.03;;;;;;;28.65;35.43;99949.72;10384497;28;20049;-84
2023/06/21 18:07:47;;;;;;;3.95;1.98;;;;;;;28.70;35.23;99951.78;10399801;28;20042;-83
2023/06/21 18:12:49;;;;;;;2.80;1.70;;;;;;;28.42;35.46;99951.16;10397345;28;20061;-83
2023/06/21 18:17:51;;;;;;;3.03;1.70;;;;;;;28.15;35.88;99943.06;10395537;28;20077;-83
2023/06/21 18:22:54;;;;;;;2.80;1.70;;;;;;;28.01;36.57;99935.97;10408296;28;20055;-83
2023/06/21 18:27:56;;;;;;;3.60;2.33;;;;;;;27.84;36.73;99937.38;10398742;28;20052;-81
2023/06/21 18:32:58;;;;;;;3.13;1.88;;;;;;;27.64;37.02;99935.63;10392319;28;20052;-80
2023/06/21 18:38:01;;;;;;;3.58;1.85;;;;;;;27.49;37.38;99933.91;10381778;28;20048;-81
2023/06/21 18:43:03;;;;;;;3.10;1.63;;;;;;;27.10;38.06;99941.75;10388258;28;20567;-81
2023/06/21 18:48:05;;;;;;;3.92;1.90;;;;;;;26.95;37.97;99930.31;10387715;28;20045;-80
2023/06/21 18:53:07;;;;;;;4.00;2.33;;;;;;;26.86;38.32;99931.47;10361686;28;20049;-80
2023/06/21 18:58:09;;;;;;;3.88;1.88;;;;;;;26.68;38.55;99921.25;10391041;28;20064;-83
2023/06/21 19:03:11;;;;;;;5.30;2.00;;;;;;;26.54;38.62;99921.31;10382984;28;20498;-83
2023/06/21 19:08:13;;;;;;;4.93;2.28;;;;;;;26.43;38.86;99925.34;10400418;28;20600;-82
2023/06/21 19:13:15;;;;;;;3.55;1.92;;;;;;;26.38;39.08;99924.25;10391757;28;20085;-85
2023/06/21 19:18:17;;;;;;;3.00;2.10;;;;;;;26.22;39.36;99932.56;10394190;28;20049;-86
2023/06/21 19:23:19;;;;;;;5.15;2.20;;;;;;;26.08;39.72;99934.28;10386305;28;20388;-85
2023/06/21 19:28:23;;;;;;;3.63;2.00;;;;;;;25.95;40.35;99955.56;10403177;28;20076;-86
2023/06/21 19:33:28;;;;;;;3.58;2.10;;;;;;;25.66;40.26;99964.50;10402757;28;20051;-85
2023/06/21 19:38:29;;;;;;;2.95;1.80;;;;;;;25.40;40.68;99961.50;10381272;28;20053;-84
2023/06/21 19:43:31;;;;;;;3.00;1.85;;;;;;;24.90;41.31;99974.72;10414689;28;20056;-84
2023/06/21 19:48:33;;;;;;;3.13;1.95;;;;;;;24.54;42.04;99987.06;10410481;28;20888;-85
2023/06/21 19:53:35;;;;;;;4.75;2.20;;;;;;;24.54;42.20;100003.94;10391172;28;20053;-85
2023/06/21 19:58:37;;;;;;;4.13;2.20;;;;;;;24.36;42.41;100002.56;10393451;28;20057;-85
2023/06/21 20:03:39;;;;;;;2.83;1.80;;;;;;;24.07;43.04;100016.63;10415227;28;20104;-84
2023/06/21 20:08:41;;;;;;;3.55;1.90;;;;;;;23.74;43.91;100029.28;10413670;28;20514;-84
2023/06/21 20:13:45;;;;;;;3.03;1.90;;;;;;;23.52;44.59;100035.38;10402532;28;20524;-83
2023/06/21 20:18:48;;;;;;;3.60;2.03;;;;;;;23.57;44.92;100038.38;10390867;28;20415;-84
2023/06/21 20:23:50;;;;;;;3.20;1.95;;;;;;;23.39;45.52;100041.22;10405415;28;20614;-84
2023/06/21 20:28:52;;;;;;;3.90;2.05;;;;;;;23.59;45.38;100035.53;10394916;28;20053;-84
2023/06/21 20:33:53;;;;;;;5.93;2.30;;;;;;;23.58;45.38;100048.03;10421635;28;20050;-84
2023/06/21 20:38:56;;;;;;;3.63;2.25;;;;;;;23.50;45.66;100048.06;10403588;28;20048;-84
2023/06/21 20:43:58;;;;;;;3.35;2.00;;;;;;;23.42;45.91;100048.09;10405033;28;20049;-84
2023/06/21 20:49:03;;;;;;;3.08;1.75;;;;;;;23.53;45.74;100050.41;10424413;28;20575;-84
2023/06/21 20:54:11;;;;;;;4.05;2.08;;;;;;;23.78;45.54;100062.66;10421438;28;20094;-84
2023/06/21 20:59:16;;;;;;;4.10;2.00;;;;;;;23.56;45.90;100076.75;10389122;28;20049;-84
2023/06/21 21:04:18;;;;;;;3.53;2.20;;;;;;;23.32;46.35;100066.09;10402496;28;20049;-85
2023/06/21 21:09:20;;;;;;;3.90;2.05;;;;;;;23.28;46.51;100060.28;10400447;28;20085;-84
2023/06/21 21:14:22;;;;;;;3.50;2.25;;;;;;;23.20;46.90;100056.78;10416443;28;20045;-84
2023/06/21 21:19:25;;;;;;;3.80;2.10;;;;;;;23.12;47.12;100054.13;10400965;28;20053;-84
2023/06/21 21:24:26;;;;;;;4.78;2.20;;;;;;;23.27;47.03;100058.59;10417709;28;20118;-84
2023/06/21 21:29:28;;;;;;;4.03;2.33;;;;;;;23.19;47.23;100055.94;10416333;28;20072;-84
2023/06/21 21:34:30;;;;;;;3.63;2.13;;;;;;;23.15;47.50;100056.44;10407455;28;20054;-84
2023/06/21 21:39:32;;;;;;;3.95;2.30;;;;;;;23.05;47.59;100059.28;10400901;28;20037;-84
2023/06/21 21:44:34;;;;;;;3.90;2.10;;;;;;;22.91;47.78;100041.31;10380540;28;20068;-84
2023/06/21 21:49:35;;;;;;;4.00;2.50;;;;;;;22.77;48.16;100036.66;10378042;28;20072;-84
2023/06/21 21:54:37;;;;;;;3.45;2.20;;;;;;;22.91;47.83;100046.63;10421621;28;20045;-84
2023/06/21 21:59:39;;;;;;;3.85;2.42;;;;;;;23.12;47.71;100041.63;10408717;28;20343;-84
2023/06/21 22:04:43;;;;;;;4.60;2.58;;;;;;;22.94;47.96;100034.81;10391985;28;20497;-84
2023/06/21 22:09:45;;;;;;;5.32;2.40;;;;;;;22.78;48.20;100056.16;10396678;28;20128;-84
2023/06/21 22:14:50;;;;;;;4.40;2.40;;;;;;;22.67;48.43;100066.13;10400641;28;20060;-84
2023/06/21 22:19:52;;;;;;;3.60;2.20;;;;;;;22.72;48.30;100070.13;10406027;28;20052;-84
2023/06/21 22:24:54;;;;;;;4.20;2.30;;;;;;;22.95;48.38;100087.97;10403920;28;20056;-84
2023/06/21 22:29:56;;;;;;;3.85;2.30;;;;;;;23.21;48.09;100088.63;10418570;28;20049;-84
2023/06/21 22:35:00;;;;;;;4.80;2.63;;;;;;;23.26;47.96;100096.13;10419510;28;20477;-84
2023/06/21 22:40:04;;;;;;;3.67;2.28;;;;;;;23.33;48.24;100083.78;10378181;28;20069;-84
2023/06/21 22:45:07;;;;;;;3.50;2.10;;;;;;;23.06;48.26;100070.81;10396629;28;20048;-84
2023/06/21 22:50:09;;;;;;;5.18;3.00;;;;;;;22.90;48.80;100076.16;10383258;28;20120;-84
2023/06/21 22:55:12;;;;;;;4.50;2.50;;;;;;;22.77;48.95;100070.47;10422137;28;20803;-84
2023/06/21 23:00:14;;;;;;;4.22;2.53;;;;;;;22.64;49.43;100070.91;10408008;28;20505;-85
2023/06/21 23:05:16;;;;;;;4.05;2.53;;;;;;;22.94;48.90;100077.47;10414028;28;20049;-84
2023/06/21 23:10:18;;;;;;;4.18;2.60;;;;;;;23.14;48.65;100068.97;10395230;28;20123;-84
2023/06/21 23:15:20;;;;;;;5.28;2.65;;;;;;;23.05;48.62;100066.47;10398118;28;20119;-84
2023/06/21 23:20:22;;;;;;;4.45;2.45;;;;;;;23.01;49.07;100059.78;10385190;28;20382;-84
2023/06/21 23:25:24;;;;;;;5.13;2.90;;;;;;;22.88;49.20;100046.16;10395631;28;20532;-84
2023/06/21 23:30:25;;;;;;;4.03;2.50;;;;;;;22.53;49.83;100032.13;10396669;28;20048;-84